sensor_id;sensor_type;location;lat;lon;timestamp;P1;durP1;ratioP1;P2;durP2;ratioP2
23800;SDS011;12081;48.614;10.226;2023-03-23T00:00:19;3.10;;;1.37;;
23800;SDS011;12081;48.614;10.226;2023-03-23T00:03:05;2.20;;;1.90;;
23800;SDS011;12081;48.614;10.226;2023-03-23T00:05:50;5.60;;;1.53;;
23800;SDS011;12081;48.614;10.226;2023-03-23T00:08:35;1.93;;;1.73;;
23800;SDS011;12081;48.614;10.226;2023-03-23T00:11:21;3.73;;;1.57;;
23800;SDS011;12081;48.614;10.226;2023-03-23T00:14:08;2.50;;;1.60;;
23800;SDS011;12081;48.614;10.226;2023-03-23T00:16:56;3.03;;;1.50;;
23800;SDS011;12081;48.614;10.226;2023-03-23T00:19:41;2.27;;;1.40;;
23800;SDS011;12081;48.614;10.226;2023-03-23T00:22:31;2.50;;;1.60;;
23800;SDS011;12081;48.614;10.226;2023-03-23T00:25:21;1.90;;;1.30;;
23800;SDS011;12081;48.614;10.226;2023-03-23T00:28:05;2.80;;;1.50;;
23800;SDS011;12081;48.614;10.226;2023-03-23T00:30:48;2.67;;;1.40;;
23800;SDS011;12081;48.614;10.226;2023-03-23T00:33:35;3.47;;;1.40;;
23800;SDS011;12081;48.614;10.226;2023-03-23T00:36:24;5.13;;;1.67;;
23800;SDS011;12081;48.614;10.226;2023-03-23T00:39:10;1.90;;;1.30;;
23800;SDS011;12081;48.614;10.226;2023-03-23T00:41:54;2.97;;;1.40;;
23800;SDS011;12081;48.614;10.226;2023-03-23T00:44:44;3.03;;;1.73;;
23800;SDS011;12081;48.614;10.226;2023-03-23T00:47:29;2.00;;;1.50;;
23800;SDS011;12081;48.614;10.226;2023-03-23T00:50:14;2.43;;;1.43;;
23800;SDS011;12081;48.614;10.226;2023-03-23T00:52:58;2.70;;;1.27;;
23800;SDS011;12081;48.614;10.226;2023-03-23T00:55:43;3.63;;;1.60;;
23800;SDS011;12081;48.614;10.226;2023-03-23T00:58:30;2.77;;;1.60;;
23800;SDS011;12081;48.614;10.226;2023-03-23T01:01:14;2.43;;;1.50;;
23800;SDS011;12081;48.614;10.226;2023-03-23T01:03:59;3.40;;;1.43;;
23800;SDS011;12081;48.614;10.226;2023-03-23T01:06:44;2.40;;;1.60;;
23800;SDS011;12081;48.614;10.226;2023-03-23T01:09:31;4.40;;;1.43;;
23800;SDS011;12081;48.614;10.226;2023-03-23T01:12:16;4.73;;;2.60;;
23800;SDS011;12081;48.614;10.226;2023-03-23T01:15:00;4.80;;;2.30;;
23800;SDS011;12081;48.614;10.226;2023-03-23T01:17:44;4.13;;;2.03;;
23800;SDS011;12081;48.614;10.226;2023-03-23T01:20:28;3.37;;;1.83;;
23800;SDS011;12081;48.614;10.226;2023-03-23T01:23:14;3.10;;;1.53;;
23800;SDS011;12081;48.614;10.226;2023-03-23T01:26:01;3.97;;;2.00;;
23800;SDS011;12081;48.614;10.226;2023-03-23T01:28:47;2.53;;;1.63;;
23800;SDS011;12081;48.614;10.226;2023-03-23T01:31:31;2.90;;;1.57;;
23800;SDS011;12081;48.614;10.226;2023-03-23T01:34:16;3.13;;;1.83;;
23800;SDS011;12081;48.614;10.226;2023-03-23T01:37:00;4.73;;;1.90;;
23800;SDS011;12081;48.614;10.226;2023-03-23T01:39:45;6.10;;;2.37;;
23800;SDS011;12081;48.614;10.226;2023-03-23T01:42:30;3.60;;;2.40;;
23800;SDS011;12081;48.614;10.226;2023-03-23T01:45:22;5.57;;;2.73;;
23800;SDS011;12081;48.614;10.226;2023-03-23T01:51:17;3.87;;;2.93;;
23800;SDS011;12081;48.614;10.226;2023-03-23T01:54:04;4.40;;;3.30;;
23800;SDS011;12081;48.614;10.226;2023-03-23T01:56:55;5.60;;;2.97;;
23800;SDS011;12081;48.614;10.226;2023-03-23T01:59:43;5.13;;;3.23;;
23800;SDS011;12081;48.614;10.226;2023-03-23T02:02:31;6.53;;;4.17;;
23800;SDS011;12081;48.614;10.226;2023-03-23T02:05:21;11.33;;;7.03;;
23800;SDS011;12081;48.614;10.226;2023-03-23T02:08:16;8.73;;;6.63;;
23800;SDS011;12081;48.614;10.226;2023-03-23T02:11:08;11.73;;;6.00;;
23800;SDS011;12081;48.614;10.226;2023-03-23T02:13:57;6.50;;;4.57;;
23800;SDS011;12081;48.614;10.226;2023-03-23T02:22:55;9.43;;;6.57;;
23800;SDS011;12081;48.614;10.226;2023-03-23T02:29:03;10.77;;;6.10;;
23800;SDS011;12081;48.614;10.226;2023-03-23T02:34:53;9.30;;;7.57;;
23800;SDS011;12081;48.614;10.226;2023-03-23T02:37:50;9.97;;;7.10;;
23800;SDS011;12081;48.614;10.226;2023-03-23T02:40:43;7.53;;;5.53;;
23800;SDS011;12081;48.614;10.226;2023-03-23T02:46:06;10.83;;;7.13;;
23800;SDS011;12081;48.614;10.226;2023-03-23T02:48:53;10.30;;;6.10;;
23800;SDS011;12081;48.614;10.226;2023-03-23T02:51:41;9.10;;;6.70;;
23800;SDS011;12081;48.614;10.226;2023-03-23T02:54:28;7.93;;;5.57;;
23800;SDS011;12081;48.614;10.226;2023-03-23T02:57:13;6.50;;;4.60;;
23800;SDS011;12081;48.614;10.226;2023-03-23T02:59:57;7.93;;;4.80;;
23800;SDS011;12081;48.614;10.226;2023-03-23T03:02:43;8.93;;;5.93;;
23800;SDS011;12081;48.614;10.226;2023-03-23T03:05:44;8.07;;;5.67;;
23800;SDS011;12081;48.614;10.226;2023-03-23T03:11:37;6.10;;;4.23;;
23800;SDS011;12081;48.614;10.226;2023-03-23T03:14:26;6.07;;;4.00;;
23800;SDS011;12081;48.614;10.226;2023-03-23T03:17:25;6.03;;;3.90;;
23800;SDS011;12081;48.614;10.226;2023-03-23T03:20:12;8.80;;;4.17;;
23800;SDS011;12081;48.614;10.226;2023-03-23T03:22:58;5.63;;;3.77;;
23800;SDS011;12081;48.614;10.226;2023-03-23T03:25:44;6.53;;;4.53;;
23800;SDS011;12081;48.614;10.226;2023-03-23T03:28:31;5.03;;;4.27;;
23800;SDS011;12081;48.614;10.226;2023-03-23T03:31:17;7.27;;;4.33;;
23800;SDS011;12081;48.614;10.226;2023-03-23T03:34:04;7.57;;;4.23;;
23800;SDS011;12081;48.614;10.226;2023-03-23T03:36:51;7.07;;;4.43;;
23800;SDS011;12081;48.614;10.226;2023-03-23T03:39:38;9.87;;;6.10;;
23800;SDS011;12081;48.614;10.226;2023-03-23T03:42:22;6.80;;;5.37;;
23800;SDS011;12081;48.614;10.226;2023-03-23T03:45:07;6.47;;;4.63;;
23800;SDS011;12081;48.614;10.226;2023-03-23T03:47:52;10.70;;;5.03;;
23800;SDS011;12081;48.614;10.226;2023-03-23T03:50:36;8.70;;;5.57;;
23800;SDS011;12081;48.614;10.226;2023-03-23T03:53:21;7.47;;;5.07;;
23800;SDS011;12081;48.614;10.226;2023-03-23T03:56:08;10.23;;;5.30;;
23800;SDS011;12081;48.614;10.226;2023-03-23T03:58:53;6.73;;;4.90;;
23800;SDS011;12081;48.614;10.226;2023-03-23T04:01:37;6.47;;;4.87;;
23800;SDS011;12081;48.614;10.226;2023-03-23T04:04:22;8.53;;;5.60;;
23800;SDS011;12081;48.614;10.226;2023-03-23T04:07:06;5.63;;;4.70;;
23800;SDS011;12081;48.614;10.226;2023-03-23T04:09:54;9.33;;;5.50;;
23800;SDS011;12081;48.614;10.226;2023-03-23T04:12:38;8.90;;;6.63;;
23800;SDS011;12081;48.614;10.226;2023-03-23T04:15:23;11.10;;;6.77;;
23800;SDS011;12081;48.614;10.226;2023-03-23T04:18:07;12.33;;;7.83;;
23800;SDS011;12081;48.614;10.226;2023-03-23T04:20:52;11.63;;;8.23;;
23800;SDS011;12081;48.614;10.226;2023-03-23T04:23:36;12.30;;;8.07;;
23800;SDS011;12081;48.614;10.226;2023-03-23T04:26:20;11.70;;;8.40;;
23800;SDS011;12081;48.614;10.226;2023-03-23T04:29:05;14.70;;;9.10;;
23800;SDS011;12081;48.614;10.226;2023-03-23T04:31:49;11.63;;;9.07;;
23800;SDS011;12081;48.614;10.226;2023-03-23T04:34:36;11.80;;;8.50;;
23800;SDS011;12081;48.614;10.226;2023-03-23T04:37:20;12.60;;;8.53;;
23800;SDS011;12081;48.614;10.226;2023-03-23T04:40:09;11.37;;;8.70;;
23800;SDS011;12081;48.614;10.226;2023-03-23T04:42:58;11.20;;;7.90;;
23800;SDS011;12081;48.614;10.226;2023-03-23T04:45:52;11.73;;;8.00;;
23800;SDS011;12081;48.614;10.226;2023-03-23T04:48:39;15.27;;;8.40;;
23800;SDS011;12081;48.614;10.226;2023-03-23T04:51:25;10.03;;;6.70;;
23800;SDS011;12081;48.614;10.226;2023-03-23T04:54:10;10.07;;;6.80;;
23800;SDS011;12081;48.614;10.226;2023-03-23T04:56:54;10.77;;;7.23;;
23800;SDS011;12081;48.614;10.226;2023-03-23T04:59:39;10.43;;;7.47;;
23800;SDS011;12081;48.614;10.226;2023-03-23T05:02:24;14.67;;;8.80;;
23800;SDS011;12081;48.614;10.226;2023-03-23T05:05:10;16.27;;;9.53;;
23800;SDS011;12081;48.614;10.226;2023-03-23T05:07:55;15.57;;;8.80;;
23800;SDS011;12081;48.614;10.226;2023-03-23T05:10:40;11.03;;;7.60;;
23800;SDS011;12081;48.614;10.226;2023-03-23T05:13:25;10.40;;;6.90;;
23800;SDS011;12081;48.614;10.226;2023-03-23T05:16:11;8.30;;;6.50;;
23800;SDS011;12081;48.614;10.226;2023-03-23T05:18:55;11.33;;;6.97;;
23800;SDS011;12081;48.614;10.226;2023-03-23T05:21:43;9.03;;;6.23;;
23800;SDS011;12081;48.614;10.226;2023-03-23T05:24:31;8.37;;;6.40;;
23800;SDS011;12081;48.614;10.226;2023-03-23T05:27:16;10.40;;;7.67;;
23800;SDS011;12081;48.614;10.226;2023-03-23T05:30:03;10.47;;;8.23;;
23800;SDS011;12081;48.614;10.226;2023-03-23T05:32:49;8.93;;;6.83;;
23800;SDS011;12081;48.614;10.226;2023-03-23T05:35:36;10.20;;;6.83;;
23800;SDS011;12081;48.614;10.226;2023-03-23T05:38:21;9.17;;;6.43;;
23800;SDS011;12081;48.614;10.226;2023-03-23T05:41:06;9.90;;;6.43;;
23800;SDS011;12081;48.614;10.226;2023-03-23T05:43:51;11.03;;;8.37;;
23800;SDS011;12081;48.614;10.226;2023-03-23T05:46:35;8.50;;;6.93;;
23800;SDS011;12081;48.614;10.226;2023-03-23T05:49:20;12.17;;;7.90;;
23800;SDS011;12081;48.614;10.226;2023-03-23T05:52:05;9.70;;;6.07;;
23800;SDS011;12081;48.614;10.226;2023-03-23T05:54:49;9.03;;;5.83;;
23800;SDS011;12081;48.614;10.226;2023-03-23T05:57:34;8.40;;;6.10;;
23800;SDS011;12081;48.614;10.226;2023-03-23T06:00:19;7.60;;;5.83;;
23800;SDS011;12081;48.614;10.226;2023-03-23T06:03:06;8.17;;;5.33;;
23800;SDS011;12081;48.614;10.226;2023-03-23T06:05:50;9.60;;;5.60;;
23800;SDS011;12081;48.614;10.226;2023-03-23T06:08:36;7.43;;;5.80;;
23800;SDS011;12081;48.614;10.226;2023-03-23T06:11:24;5.83;;;4.80;;
23800;SDS011;12081;48.614;10.226;2023-03-23T06:14:09;6.13;;;4.70;;
23800;SDS011;12081;48.614;10.226;2023-03-23T06:16:53;7.97;;;4.87;;
23800;SDS011;12081;48.614;10.226;2023-03-23T06:19:37;7.30;;;4.80;;
23800;SDS011;12081;48.614;10.226;2023-03-23T06:22:21;5.10;;;4.50;;
23800;SDS011;12081;48.614;10.226;2023-03-23T06:25:05;8.17;;;5.23;;
23800;SDS011;12081;48.614;10.226;2023-03-23T06:27:51;6.30;;;4.67;;
23800;SDS011;12081;48.614;10.226;2023-03-23T06:30:38;7.63;;;4.97;;
23800;SDS011;12081;48.614;10.226;2023-03-23T06:33:23;7.53;;;4.53;;
23800;SDS011;12081;48.614;10.226;2023-03-23T06:36:08;5.90;;;4.43;;
23800;SDS011;12081;48.614;10.226;2023-03-23T06:38:54;6.07;;;4.47;;
23800;SDS011;12081;48.614;10.226;2023-03-23T06:41:40;10.07;;;4.23;;
23800;SDS011;12081;48.614;10.226;2023-03-23T06:44:24;8.53;;;4.80;;
23800;SDS011;12081;48.614;10.226;2023-03-23T06:47:08;6.53;;;4.53;;
23800;SDS011;12081;48.614;10.226;2023-03-23T06:49:52;8.40;;;4.60;;
23800;SDS011;12081;48.614;10.226;2023-03-23T06:52:36;5.33;;;4.30;;
23800;SDS011;12081;48.614;10.226;2023-03-23T06:55:20;8.60;;;4.03;;
23800;SDS011;12081;48.614;10.226;2023-03-23T06:58:05;5.20;;;3.90;;
23800;SDS011;12081;48.614;10.226;2023-03-23T07:00:53;5.00;;;3.77;;
23800;SDS011;12081;48.614;10.226;2023-03-23T07:03:39;6.90;;;3.77;;
23800;SDS011;12081;48.614;10.226;2023-03-23T07:06:25;7.97;;;3.87;;
23800;SDS011;12081;48.614;10.226;2023-03-23T07:09:09;7.20;;;3.60;;
23800;SDS011;12081;48.614;10.226;2023-03-23T07:11:53;6.00;;;3.83;;
23800;SDS011;12081;48.614;10.226;2023-03-23T07:14:37;4.37;;;3.43;;
23800;SDS011;12081;48.614;10.226;2023-03-23T07:17:21;4.83;;;3.83;;
23800;SDS011;12081;48.614;10.226;2023-03-23T07:20:06;3.73;;;3.03;;
23800;SDS011;12081;48.614;10.226;2023-03-23T07:22:51;7.23;;;3.73;;
23800;SDS011;12081;48.614;10.226;2023-03-23T07:25:37;4.10;;;3.40;;
23800;SDS011;12081;48.614;10.226;2023-03-23T07:28:22;6.00;;;2.83;;
23800;SDS011;12081;48.614;10.226;2023-03-23T07:31:06;5.17;;;2.97;;
23800;SDS011;12081;48.614;10.226;2023-03-23T07:33:52;5.60;;;3.13;;
23800;SDS011;12081;48.614;10.226;2023-03-23T07:36:36;5.30;;;3.40;;
23800;SDS011;12081;48.614;10.226;2023-03-23T07:39:21;8.07;;;3.10;;
23800;SDS011;12081;48.614;10.226;2023-03-23T07:42:07;5.33;;;3.17;;
23800;SDS011;12081;48.614;10.226;2023-03-23T07:44:52;3.97;;;2.60;;
23800;SDS011;12081;48.614;10.226;2023-03-23T07:47:36;4.33;;;2.90;;
23800;SDS011;12081;48.614;10.226;2023-03-23T07:50:21;3.87;;;2.80;;
23800;SDS011;12081;48.614;10.226;2023-03-23T07:53:07;3.40;;;2.90;;
23800;SDS011;12081;48.614;10.226;2023-03-23T07:55:52;2.77;;;2.43;;
23800;SDS011;12081;48.614;10.226;2023-03-23T07:58:36;5.50;;;3.20;;
23800;SDS011;12081;48.614;10.226;2023-03-23T08:01:20;3.77;;;2.60;;
23800;SDS011;12081;48.614;10.226;2023-03-23T08:04:06;3.90;;;2.70;;
23800;SDS011;12081;48.614;10.226;2023-03-23T08:06:51;5.37;;;2.70;;
23800;SDS011;12081;48.614;10.226;2023-03-23T08:09:36;4.00;;;2.73;;
23800;SDS011;12081;48.614;10.226;2023-03-23T08:12:21;4.10;;;3.10;;
23800;SDS011;12081;48.614;10.226;2023-03-23T08:15:05;3.30;;;2.70;;
23800;SDS011;12081;48.614;10.226;2023-03-23T08:17:50;6.77;;;3.00;;
23800;SDS011;12081;48.614;10.226;2023-03-23T08:20:35;5.30;;;2.63;;
23800;SDS011;12081;48.614;10.226;2023-03-23T08:23:20;4.50;;;3.07;;
23800;SDS011;12081;48.614;10.226;2023-03-23T08:26:05;3.27;;;2.40;;
23800;SDS011;12081;48.614;10.226;2023-03-23T08:28:50;4.00;;;2.77;;
23800;SDS011;12081;48.614;10.226;2023-03-23T08:31:34;4.63;;;2.77;;
23800;SDS011;12081;48.614;10.226;2023-03-23T08:34:19;3.60;;;3.10;;
23800;SDS011;12081;48.614;10.226;2023-03-23T08:37:04;3.33;;;2.57;;
23800;SDS011;12081;48.614;10.226;2023-03-23T08:39:52;3.57;;;2.93;;
23800;SDS011;12081;48.614;10.226;2023-03-23T08:42:38;3.07;;;2.33;;
23800;SDS011;12081;48.614;10.226;2023-03-23T08:45:26;2.87;;;2.53;;
23800;SDS011;12081;48.614;10.226;2023-03-23T08:48:11;3.20;;;2.27;;
23800;SDS011;12081;48.614;10.226;2023-03-23T08:50:55;3.90;;;2.73;;
23800;SDS011;12081;48.614;10.226;2023-03-23T08:53:39;5.03;;;2.60;;
23800;SDS011;12081;48.614;10.226;2023-03-23T08:56:24;5.53;;;2.97;;
23800;SDS011;12081;48.614;10.226;2023-03-23T08:59:08;2.90;;;2.27;;
23800;SDS011;12081;48.614;10.226;2023-03-23T09:01:53;4.57;;;2.10;;
23800;SDS011;12081;48.614;10.226;2023-03-23T09:04:39;3.53;;;2.50;;
23800;SDS011;12081;48.614;10.226;2023-03-23T09:07:25;4.50;;;2.20;;
23800;SDS011;12081;48.614;10.226;2023-03-23T09:10:10;2.73;;;2.23;;
23800;SDS011;12081;48.614;10.226;2023-03-23T09:12:54;11.00;;;7.33;;
23800;SDS011;12081;48.614;10.226;2023-03-23T09:15:39;6.30;;;3.50;;
23800;SDS011;12081;48.614;10.226;2023-03-23T09:18:24;4.20;;;2.37;;
23800;SDS011;12081;48.614;10.226;2023-03-23T09:21:08;3.23;;;2.13;;
23800;SDS011;12081;48.614;10.226;2023-03-23T09:23:53;3.50;;;2.67;;
23800;SDS011;12081;48.614;10.226;2023-03-23T09:26:41;3.93;;;2.27;;
23800;SDS011;12081;48.614;10.226;2023-03-23T09:29:25;2.73;;;1.83;;
23800;SDS011;12081;48.614;10.226;2023-03-23T09:32:10;3.43;;;1.80;;
23800;SDS011;12081;48.614;10.226;2023-03-23T09:34:56;3.40;;;2.33;;
23800;SDS011;12081;48.614;10.226;2023-03-23T09:37:40;4.03;;;1.80;;
23800;SDS011;12081;48.614;10.226;2023-03-23T09:40:51;3.23;;;1.73;;
23800;SDS011;12081;48.614;10.226;2023-03-23T09:49:32;4.53;;;2.20;;
23800;SDS011;12081;48.614;10.226;2023-03-23T09:52:43;3.87;;;2.27;;
23800;SDS011;12081;48.614;10.226;2023-03-23T09:55:32;2.83;;;2.00;;
23800;SDS011;12081;48.614;10.226;2023-03-23T09:58:27;5.50;;;2.00;;
23800;SDS011;12081;48.614;10.226;2023-03-23T10:01:30;2.70;;;1.80;;
23800;SDS011;12081;48.614;10.226;2023-03-23T10:04:23;4.37;;;1.70;;
23800;SDS011;12081;48.614;10.226;2023-03-23T10:07:18;3.10;;;1.80;;
23800;SDS011;12081;48.614;10.226;2023-03-23T10:10:04;3.67;;;1.90;;
23800;SDS011;12081;48.614;10.226;2023-03-23T10:12:56;3.07;;;1.73;;
23800;SDS011;12081;48.614;10.226;2023-03-23T10:16:09;3.97;;;2.20;;
23800;SDS011;12081;48.614;10.226;2023-03-23T10:22:05;2.43;;;1.80;;
23800;SDS011;12081;48.614;10.226;2023-03-23T10:30:57;3.13;;;1.70;;
23800;SDS011;12081;48.614;10.226;2023-03-23T10:33:45;1.70;;;1.40;;
23800;SDS011;12081;48.614;10.226;2023-03-23T10:36:34;4.90;;;1.90;;
23800;SDS011;12081;48.614;10.226;2023-03-23T10:39:54;2.93;;;1.50;;
23800;SDS011;12081;48.614;10.226;2023-03-23T10:42:42;3.23;;;1.50;;
23800;SDS011;12081;48.614;10.226;2023-03-23T10:45:28;2.43;;;1.23;;
23800;SDS011;12081;48.614;10.226;2023-03-23T10:48:19;2.13;;;1.30;;
23800;SDS011;12081;48.614;10.226;2023-03-23T10:51:11;5.30;;;1.60;;
23800;SDS011;12081;48.614;10.226;2023-03-23T10:53:58;2.73;;;1.13;;
23800;SDS011;12081;48.614;10.226;2023-03-23T10:56:45;1.97;;;1.00;;
23800;SDS011;12081;48.614;10.226;2023-03-23T10:59:31;2.03;;;1.00;;
23800;SDS011;12081;48.614;10.226;2023-03-23T11:02:40;1.97;;;1.00;;
23800;SDS011;12081;48.614;10.226;2023-03-23T11:05:31;1.93;;;1.10;;
23800;SDS011;12081;48.614;10.226;2023-03-23T11:08:21;2.97;;;1.10;;
23800;SDS011;12081;48.614;10.226;2023-03-23T11:11:18;1.23;;;1.00;;
23800;SDS011;12081;48.614;10.226;2023-03-23T11:16:59;2.70;;;1.10;;
23800;SDS011;12081;48.614;10.226;2023-03-23T11:19:46;2.50;;;1.00;;
23800;SDS011;12081;48.614;10.226;2023-03-23T11:22:33;4.00;;;1.40;;
23800;SDS011;12081;48.614;10.226;2023-03-23T11:25:19;2.47;;;1.13;;
23800;SDS011;12081;48.614;10.226;2023-03-23T11:28:04;2.57;;;1.20;;
23800;SDS011;12081;48.614;10.226;2023-03-23T11:30:49;2.50;;;1.47;;
23800;SDS011;12081;48.614;10.226;2023-03-23T11:33:39;2.13;;;1.20;;
23800;SDS011;12081;48.614;10.226;2023-03-23T11:36:42;1.73;;;0.93;;
23800;SDS011;12081;48.614;10.226;2023-03-23T11:39:47;1.50;;;1.17;;
23800;SDS011;12081;48.614;10.226;2023-03-23T11:42:43;1.67;;;0.97;;
23800;SDS011;12081;48.614;10.226;2023-03-23T11:45:57;2.13;;;1.20;;
23800;SDS011;12081;48.614;10.226;2023-03-23T11:48:57;2.33;;;1.30;;
23800;SDS011;12081;48.614;10.226;2023-03-23T11:51:54;3.87;;;1.33;;
23800;SDS011;12081;48.614;10.226;2023-03-23T11:54:47;2.57;;;1.10;;
23800;SDS011;12081;48.614;10.226;2023-03-23T11:57:37;3.50;;;1.30;;
23800;SDS011;12081;48.614;10.226;2023-03-23T12:00:22;2.47;;;1.53;;
23800;SDS011;12081;48.614;10.226;2023-03-23T12:03:42;4.43;;;1.27;;
23800;SDS011;12081;48.614;10.226;2023-03-23T12:15:26;2.33;;;1.60;;
23800;SDS011;12081;48.614;10.226;2023-03-23T12:18:48;2.60;;;1.70;;
23800;SDS011;12081;48.614;10.226;2023-03-23T12:24:59;2.77;;;1.43;;
23800;SDS011;12081;48.614;10.226;2023-03-23T12:34:41;1.60;;;1.30;;
23800;SDS011;12081;48.614;10.226;2023-03-23T12:37:56;4.20;;;1.40;;
23800;SDS011;12081;48.614;10.226;2023-03-23T12:40:57;3.33;;;1.73;;
23800;SDS011;12081;48.614;10.226;2023-03-23T12:49:53;4.23;;;1.37;;
23800;SDS011;12081;48.614;10.226;2023-03-23T12:52:47;6.03;;;1.30;;
23800;SDS011;12081;48.614;10.226;2023-03-23T12:55:44;6.07;;;1.80;;
23800;SDS011;12081;48.614;10.226;2023-03-23T12:58:34;5.87;;;1.60;;
23800;SDS011;12081;48.614;10.226;2023-03-23T13:01:25;1.97;;;1.47;;
23800;SDS011;12081;48.614;10.226;2023-03-23T13:04:47;3.43;;;1.50;;
23800;SDS011;12081;48.614;10.226;2023-03-23T13:07:29;2.20;;;1.50;;
23800;SDS011;12081;48.614;10.226;2023-03-23T13:10:22;2.20;;;1.20;;
23800;SDS011;12081;48.614;10.226;2023-03-23T13:13:13;1.20;;;1.10;;
23800;SDS011;12081;48.614;10.226;2023-03-23T13:16:07;2.20;;;1.50;;
23800;SDS011;12081;48.614;10.226;2023-03-23T13:19:16;1.70;;;1.40;;
23800;SDS011;12081;48.614;10.226;2023-03-23T13:26:09;2.23;;;1.27;;
23800;SDS011;12081;48.614;10.226;2023-03-23T13:29:13;2.40;;;1.30;;
23800;SDS011;12081;48.614;10.226;2023-03-23T13:32:17;2.00;;;1.50;;
23800;SDS011;12081;48.614;10.226;2023-03-23T13:35:04;1.33;;;1.23;;
23800;SDS011;12081;48.614;10.226;2023-03-23T13:37:55;1.57;;;1.40;;
23800;SDS011;12081;48.614;10.226;2023-03-23T13:40:46;1.87;;;1.40;;
23800;SDS011;12081;48.614;10.226;2023-03-23T13:43:32;2.20;;;1.40;;
23800;SDS011;12081;48.614;10.226;2023-03-23T13:49:17;2.30;;;1.40;;
23800;SDS011;12081;48.614;10.226;2023-03-23T13:52:14;4.17;;;1.40;;
23800;SDS011;12081;48.614;10.226;2023-03-23T13:58:43;2.33;;;1.13;;
23800;SDS011;12081;48.614;10.226;2023-03-23T14:08:02;2.83;;;1.60;;
23800;SDS011;12081;48.614;10.226;2023-03-23T14:10:52;2.57;;;1.43;;
23800;SDS011;12081;48.614;10.226;2023-03-23T14:16:24;3.30;;;1.47;;
23800;SDS011;12081;48.614;10.226;2023-03-23T14:19:41;2.23;;;1.73;;
23800;SDS011;12081;48.614;10.226;2023-03-23T14:22:33;3.00;;;1.50;;
23800;SDS011;12081;48.614;10.226;2023-03-23T14:28:19;2.27;;;1.50;;
23800;SDS011;12081;48.614;10.226;2023-03-23T14:31:14;2.77;;;1.57;;
23800;SDS011;12081;48.614;10.226;2023-03-23T14:34:02;2.90;;;1.60;;
23800;SDS011;12081;48.614;10.226;2023-03-23T14:36:53;4.03;;;1.83;;
23800;SDS011;12081;48.614;10.226;2023-03-23T14:39:40;4.57;;;1.50;;
23800;SDS011;12081;48.614;10.226;2023-03-23T14:42:33;2.90;;;1.47;;
23800;SDS011;12081;48.614;10.226;2023-03-23T14:45:20;2.47;;;1.37;;
23800;SDS011;12081;48.614;10.226;2023-03-23T14:48:05;3.80;;;1.67;;
23800;SDS011;12081;48.614;10.226;2023-03-23T14:50:51;2.57;;;1.50;;
23800;SDS011;12081;48.614;10.226;2023-03-23T14:53:52;4.17;;;1.33;;
23800;SDS011;12081;48.614;10.226;2023-03-23T14:57:02;4.73;;;1.43;;
23800;SDS011;12081;48.614;10.226;2023-03-23T15:00:14;3.23;;;1.83;;
23800;SDS011;12081;48.614;10.226;2023-03-23T15:06:35;7.30;;;2.37;;
23800;SDS011;12081;48.614;10.226;2023-03-23T15:09:21;6.10;;;2.30;;
23800;SDS011;12081;48.614;10.226;2023-03-23T15:12:09;2.30;;;2.00;;
23800;SDS011;12081;48.614;10.226;2023-03-23T15:15:22;5.83;;;2.40;;
23800;SDS011;12081;48.614;10.226;2023-03-23T15:18:31;5.43;;;2.43;;
23800;SDS011;12081;48.614;10.226;2023-03-23T15:27:23;3.50;;;2.20;;
23800;SDS011;12081;48.614;10.226;2023-03-23T15:30:15;4.67;;;2.50;;
23800;SDS011;12081;48.614;10.226;2023-03-23T15:33:09;3.57;;;2.57;;
23800;SDS011;12081;48.614;10.226;2023-03-23T15:35:55;3.07;;;2.50;;
23800;SDS011;12081;48.614;10.226;2023-03-23T15:38:49;2.67;;;2.20;;
23800;SDS011;12081;48.614;10.226;2023-03-23T15:41:34;2.80;;;2.50;;
23800;SDS011;12081;48.614;10.226;2023-03-23T15:44:34;4.87;;;2.83;;
23800;SDS011;12081;48.614;10.226;2023-03-23T15:47:22;5.70;;;2.43;;
23800;SDS011;12081;48.614;10.226;2023-03-23T15:56:10;5.50;;;2.57;;
23800;SDS011;12081;48.614;10.226;2023-03-23T15:58:56;4.10;;;2.37;;
23800;SDS011;12081;48.614;10.226;2023-03-23T16:01:42;3.60;;;2.40;;
23800;SDS011;12081;48.614;10.226;2023-03-23T16:04:30;4.17;;;2.20;;
23800;SDS011;12081;48.614;10.226;2023-03-23T16:07:18;2.80;;;2.30;;
23800;SDS011;12081;48.614;10.226;2023-03-23T16:10:06;3.87;;;2.70;;
23800;SDS011;12081;48.614;10.226;2023-03-23T16:12:58;3.53;;;2.10;;
23800;SDS011;12081;48.614;10.226;2023-03-23T16:15:43;3.23;;;2.23;;
23800;SDS011;12081;48.614;10.226;2023-03-23T16:18:28;5.23;;;2.30;;
23800;SDS011;12081;48.614;10.226;2023-03-23T16:21:14;4.87;;;3.40;;
23800;SDS011;12081;48.614;10.226;2023-03-23T16:23:58;6.30;;;3.43;;
23800;SDS011;12081;48.614;10.226;2023-03-23T16:26:46;8.70;;;6.13;;
23800;SDS011;12081;48.614;10.226;2023-03-23T16:30:24;12.30;;;9.90;;
23800;SDS011;12081;48.614;10.226;2023-03-23T16:33:10;13.37;;;8.53;;
23800;SDS011;12081;48.614;10.226;2023-03-23T16:35:54;12.57;;;7.93;;
23800;SDS011;12081;48.614;10.226;2023-03-23T16:38:41;5.00;;;3.10;;
23800;SDS011;12081;48.614;10.226;2023-03-23T16:41:25;3.50;;;2.10;;
23800;SDS011;12081;48.614;10.226;2023-03-23T16:44:10;5.90;;;4.97;;
23800;SDS011;12081;48.614;10.226;2023-03-23T16:46:54;4.67;;;3.90;;
23800;SDS011;12081;48.614;10.226;2023-03-23T16:49:38;13.57;;;11.57;;
23800;SDS011;12081;48.614;10.226;2023-03-23T16:52:23;7.40;;;6.43;;
23800;SDS011;12081;48.614;10.226;2023-03-23T16:55:07;5.63;;;4.90;;
23800;SDS011;12081;48.614;10.226;2023-03-23T16:57:53;6.10;;;4.33;;
23800;SDS011;12081;48.614;10.226;2023-03-23T17:00:38;6.50;;;5.43;;
23800;SDS011;12081;48.614;10.226;2023-03-23T17:03:23;3.47;;;2.07;;
23800;SDS011;12081;48.614;10.226;2023-03-23T17:06:19;4.40;;;2.00;;
23800;SDS011;12081;48.614;10.226;2023-03-23T17:09:03;2.70;;;2.00;;
23800;SDS011;12081;48.614;10.226;2023-03-23T17:11:48;2.50;;;1.90;;
23800;SDS011;12081;48.614;10.226;2023-03-23T17:14:32;3.83;;;1.90;;
23800;SDS011;12081;48.614;10.226;2023-03-23T17:17:17;4.13;;;1.90;;
23800;SDS011;12081;48.614;10.226;2023-03-23T17:20:02;2.47;;;2.07;;
23800;SDS011;12081;48.614;10.226;2023-03-23T17:22:48;3.17;;;1.90;;
23800;SDS011;12081;48.614;10.226;2023-03-23T17:25:31;3.00;;;2.10;;
23800;SDS011;12081;48.614;10.226;2023-03-23T17:28:16;4.43;;;3.33;;
23800;SDS011;12081;48.614;10.226;2023-03-23T17:31:00;4.17;;;2.47;;
23800;SDS011;12081;48.614;10.226;2023-03-23T17:33:45;3.00;;;2.07;;
23800;SDS011;12081;48.614;10.226;2023-03-23T17:36:29;3.67;;;2.27;;
23800;SDS011;12081;48.614;10.226;2023-03-23T17:39:13;2.80;;;2.13;;
23800;SDS011;12081;48.614;10.226;2023-03-23T17:41:58;2.77;;;2.23;;
23800;SDS011;12081;48.614;10.226;2023-03-23T17:44:43;2.57;;;2.23;;
23800;SDS011;12081;48.614;10.226;2023-03-23T17:47:27;3.27;;;2.40;;
23800;SDS011;12081;48.614;10.226;2023-03-23T17:50:11;2.90;;;2.23;;
23800;SDS011;12081;48.614;10.226;2023-03-23T17:52:55;2.43;;;1.93;;
23800;SDS011;12081;48.614;10.226;2023-03-23T17:55:41;5.20;;;2.50;;
23800;SDS011;12081;48.614;10.226;2023-03-23T17:58:26;3.53;;;2.20;;
23800;SDS011;12081;48.614;10.226;2023-03-23T18:01:10;3.00;;;2.23;;
23800;SDS011;12081;48.614;10.226;2023-03-23T18:03:55;5.73;;;2.60;;
23800;SDS011;12081;48.614;10.226;2023-03-23T18:06:39;3.97;;;2.23;;
23800;SDS011;12081;48.614;10.226;2023-03-23T18:09:23;3.83;;;2.27;;
23800;SDS011;12081;48.614;10.226;2023-03-23T18:12:08;4.07;;;2.60;;
23800;SDS011;12081;48.614;10.226;2023-03-23T18:14:56;5.17;;;2.43;;
23800;SDS011;12081;48.614;10.226;2023-03-23T18:17:41;6.40;;;2.60;;
23800;SDS011;12081;48.614;10.226;2023-03-23T18:20:27;3.63;;;2.77;;